Station Historical Data
Daily Summary for January 3, 2012 Units:  Metric    English   Both
« Previous Day
Next Day »
Daily Weekly Monthly Yearly Custom
  High: Low: Average:
Temperature: 2.6 °C -8.6 °C -3.3 °C
Dew Point: -8.1 °C -13.8 °C -12 °C
Humidity: 75% 31% 52%
Wind Speed: 40.2km/h 0km/h 5.5km/h
Wind Gust: 40.2km/h - -
Wind- - WSW
Pressure: 1035.4 hPa 1028.7 hPa -
Precipitation: 0 mm    
Historical Graphs
 
 
Tabular Data for January 3, 2012
Time Temperature Dew Point Pressure Wind Wind Speed Wind Gust Humidity Rainfall Rate (Hourly) Conditions
00:00 -3.3 °C -12.2 °C 1029.3 hPa WNW 8 km/h 17.7 km/h 50% 0 mm
00:01 -3.3 °C -12.2 °C 1029.3 hPa NW 3.2 km/h 17.7 km/h 50% 0 mm
00:06 -3.2 °C -11.7 °C 1029.3 hPa NNW 9.7 km/h 16.1 km/h 52% 0 mm
00:11 -3.2 °C -11.4 °C 1029.3 hPa NNW 8 km/h 14.5 km/h 53% 0 mm
00:16 -3.2 °C -11.2 °C 1029.3 hPa NNE 11.3 km/h 11.3 km/h 54% 0 mm
00:21 -3.2 °C -10.7 °C 1029.7 hPa NNW 6.4 km/h 19.3 km/h 56% 0 mm
00:26 -3.2 °C -10.3 °C 1029.7 hPa North 11.3 km/h 24.1 km/h 58% 0 mm
00:31 -3.2 °C -10.1 °C 1029.7 hPa NNW 14.5 km/h 19.3 km/h 59% 0 mm
00:36 -3.3 °C -9.9 °C 1029.7 hPa NNW 6.4 km/h 11.3 km/h 60% 0 mm
00:41 -3.2 °C -9.9 °C 1029.7 hPa NW 16.1 km/h 24.1 km/h 60% 0 mm
00:46 -3.3 °C -9.9 °C 1029.7 hPa NW 11.3 km/h 17.7 km/h 60% 0 mm
00:51 -3.2 °C -9.9 °C 1029.7 hPa NNE 14.5 km/h 24.1 km/h 60% 0 mm
00:56 -3.2 °C -9.4 °C 1030 hPa NNE 22.5 km/h 24.1 km/h 62% 0 mm
01:00 -3.3 °C -9.2 °C 1030 hPa NW 40.2 km/h 40.2 km/h 64% 0 mm
01:01 -3.3 °C -9.2 °C 1030 hPa North 24.1 km/h 40.2 km/h 64% 0 mm
01:06 -3.4 °C -9.1 °C 1030 hPa NW 16.1 km/h 30.6 km/h 65% 0 mm
01:11 -3.6 °C -9.2 °C 1030 hPa NNW 17.7 km/h 22.5 km/h 65% 0 mm
01:16 -3.7 °C -9.3 °C 1030 hPa WNW 14.5 km/h 27.4 km/h 65% 0 mm
01:22 -3.8 °C -9.2 °C 1030 hPa NW 20.9 km/h 24.1 km/h 66% 0 mm
01:27 -3.8 °C -9 °C 1030 hPa NW 17.7 km/h 20.9 km/h 67% 0 mm
01:30 -3.8 °C -8.5 °C 1030 hPa NW 19.3 km/h 25.7 km/h 70% 0 mm
01:32 -3.9 °C -8.6 °C 1030 hPa NW 19.3 km/h 25.7 km/h 70% 0 mm
01:37 -3.9 °C -8.2 °C 1030.4 hPa NW 9.7 km/h 17.7 km/h 72% 0 mm
01:39 -4 °C -8.1 °C 1030.4 hPa NW 22.5 km/h 25.7 km/h 73% 0 mm
01:44 -4.2 °C -9.4 °C 1030.4 hPa NNW 17.7 km/h 27.4 km/h 67% 0 mm
01:49 -4.3 °C -9.9 °C 1030.7 hPa NW 12.9 km/h 29 km/h 65% 0 mm
01:54 -4.4 °C -10 °C 1030.7 hPa NNW 11.3 km/h 25.7 km/h 65% 0 mm
01:59 -4.4 °C -10.4 °C 1030.7 hPa NW 29 km/h 30.6 km/h 63% 0 mm
02:00 -4.4 °C -10.4 °C 1030.7 hPa NW 20.9 km/h 30.6 km/h 63% 0 mm
02:04 -4.4 °C -10.4 °C 1030.7 hPa NNW 22.5 km/h 27.4 km/h 63% 0 mm
02:09 -4.4 °C -10.4 °C 1030.7 hPa NNW 19.3 km/h 29 km/h 63% 0 mm
02:14 -4.4 °C -10.4 °C 1030.7 hPa NNE 19.3 km/h 27.4 km/h 63% 0 mm
02:19 -4.5 °C -11.3 °C 1030.7 hPa North 14.5 km/h 27.4 km/h 59% 0 mm
02:24 -4.6 °C -12.5 °C 1031 hPa North 20.9 km/h 33.8 km/h 54% 0 mm
02:29 -4.7 °C -12.8 °C 1031 hPa NNE 14.5 km/h 30.6 km/h 53% 0 mm
02:30 -4.7 °C -12.8 °C 1031 hPa NNW 11.3 km/h 20.9 km/h 53% 0 mm
02:34 -4.8 °C -13.2 °C 1031 hPa NNW 14.5 km/h 33.8 km/h 52% 0 mm
02:39 -4.9 °C -13.3 °C 1031 hPa NNW 14.5 km/h 25.7 km/h 52% 0 mm
02:44 -5.1 °C -13.4 °C 1031.4 hPa NNW 12.9 km/h 29 km/h 52% 0 mm
02:49 -5.2 °C -13.3 °C 1031.4 hPa NW 11.3 km/h 20.9 km/h 53% 0 mm
02:54 -5.3 °C -13.4 °C 1031.4 hPa NNE 17.7 km/h 22.5 km/h 53% 0 mm
02:59 -5.4 °C -13.2 °C 1031.4 hPa NW 8 km/h 22.5 km/h 54% 0 mm
03:00 -5.4 °C -13.3 °C 1031.4 hPa NNW 8 km/h 20.9 km/h 54% 0 mm
03:05 -5.6 °C -13.4 °C 1031.4 hPa NNW 12.9 km/h 20.9 km/h 54% 0 mm
03:10 -5.6 °C -13.4 °C 1031.4 hPa North 20.9 km/h 20.9 km/h 54% 0 mm
03:15 -5.7 °C -13.5 °C 1031.7 hPa NW 14.5 km/h 24.1 km/h 54% 0 mm
03:20 -5.7 °C -13.7 °C 1031.7 hPa NNW 16.1 km/h 30.6 km/h 53% 0 mm
03:25 -5.7 °C -13.8 °C 1031.7 hPa NW 9.7 km/h 19.3 km/h 53% 0 mm
03:30 -5.8 °C -13.8 °C 1031.7 hPa NNW 17.7 km/h 22.5 km/h 53% 0 mm
03:35 -5.8 °C -13.7 °C 1031.7 hPa NW 9.7 km/h 16.1 km/h 54% 0 mm
03:40 -5.9 °C -13.7 °C 1032.1 hPa NNW 8 km/h 14.5 km/h 54% 0 mm
03:45 -6.1 °C -13.8 °C 1032.1 hPa NNW 8 km/h 14.5 km/h 54% 0 mm
03:50 -6.2 °C -13.5 °C 1032.1 hPa NE 6.4 km/h 8 km/h 56% 0 mm
03:55 -6.2 °C -13.6 °C 1031.7 hPa NNW 6.4 km/h 19.3 km/h 56% 0 mm
04:00 -6.2 °C -13.6 °C 1031.7 hPa NNW 6.4 km/h 14.5 km/h 56% 0 mm
04:05 -6.3 °C -13.4 °C 1031.7 hPa NNW 8 km/h 14.5 km/h 57% 0 mm
04:10 -6.4 °C -13.6 °C 1031.7 hPa NNW 4.8 km/h 8 km/h 57% 0 mm
04:15 -6.5 °C -13.6 °C 1032.1 hPa NNW 9.7 km/h 11.3 km/h 57% 0 mm
04:20 -6.6 °C -13.4 °C 1032.1 hPa NNW 6.4 km/h 12.9 km/h 58% 0 mm
04:25 -6.6 °C -13.3 °C 1032.1 hPa North 6.4 km/h 8 km/h 59% 0 mm
04:30 -6.6 °C -13.5 °C 1032.1 hPa North 9.7 km/h 12.9 km/h 58% 0 mm
04:35 -6.6 °C -13.3 °C 1032.1 hPa NNW 8 km/h 9.7 km/h 59% 0 mm
04:41 -6.7 °C -13.3 °C 1032.1 hPa NNW 6.4 km/h 9.7 km/h 59% 0 mm
04:46 -6.8 °C -13.2 °C 1032.1 hPa NNW 4.8 km/h 8 km/h 60% 0 mm
04:51 -6.8 °C -13.3 °C 1032.1 hPa NW 6.4 km/h 8 km/h 60% 0 mm
04:56 -6.9 °C -13.1 °C 1032.1 hPa NNW 3.2 km/h 9.7 km/h 61% 0 mm
05:00 -7 °C -13.2 °C 1032.1 hPa NNW 3.2 km/h 6.4 km/h 61% 0 mm
05:01 -7 °C -13.2 °C 1032.1 hPa NW 3.2 km/h 6.4 km/h 61% 0 mm
05:06 -7 °C -13.1 °C 1032.1 hPa NW 1.6 km/h 4.8 km/h 62% 0 mm
05:11 -7.1 °C -13.2 °C 1032.4 hPa NNW 3.2 km/h 6.4 km/h 62% 0 mm
05:16 -7.2 °C -13.2 °C 1032.4 hPa NNW 6.4 km/h 6.4 km/h 62% 0 mm
05:21 -7.1 °C -13.2 °C 1032.4 hPa NW 3.2 km/h 4.8 km/h 62% 0 mm
05:26 -7.2 °C -13.2 °C 1032.7 hPa NNW 3.2 km/h 6.4 km/h 62% 0 mm
05:30 -7.2 °C -13.2 °C 1032.7 hPa NNW 3.2 km/h 4.8 km/h 62% 0 mm
05:31 -7.2 °C -13 °C 1032.7 hPa NNW 4.8 km/h 4.8 km/h 63% 0 mm
05:36 -7.2 °C -13.2 °C 1032.7 hPa NNW 3.2 km/h 6.4 km/h 62% 0 mm
05:41 -7.2 °C -13.1 °C 1032.7 hPa NW 3.2 km/h 3.2 km/h 63% 0 mm
05:46 -7.3 °C -13.1 °C 1032.7 hPa NW 1.6 km/h 4.8 km/h 63% 0 mm
05:51 -7.3 °C -13 °C 1032.7 hPa NW 1.6 km/h 4.8 km/h 64% 0 mm
05:56 -7.4 °C -13 °C 1032.7 hPa NNW 3.2 km/h 3.2 km/h 64% 0 mm
06:00 -7.4 °C -13 °C 1032.7 hPa NNW 3.2 km/h 3.2 km/h 64% 0 mm
06:01 -7.4 °C -13.1 °C 1032.7 hPa NNW 3.2 km/h 3.2 km/h 64% 0 mm
06:06 -7.4 °C -13 °C 1032.7 hPa NW 3.2 km/h 4.8 km/h 64% 0 mm
06:11 -7.6 °C -13 °C 1032.7 hPa NW 1.6 km/h 3.2 km/h 65% 0 mm
06:16 -7.7 °C -12.8 °C 1033.1 hPa NW 1.6 km/h 3.2 km/h 67% 0 mm
06:21 -7.7 °C -12.9 °C 1033.1 hPa NW 1.6 km/h 3.2 km/h 66% 0 mm
06:26 -7.7 °C -12.7 °C 1033.1 hPa NW 1.6 km/h 1.6 km/h 67% 0 mm
06:30 -7.7 °C -12.9 °C 1033.1 hPa NW 1.6 km/h 3.2 km/h 66% 0 mm
06:31 -7.7 °C -12.9 °C 1033.1 hPa NW 1.6 km/h 3.2 km/h 66% 0 mm
06:36 -7.7 °C -12.9 °C 1033.1 hPa Calm   1.6 km/h 66% 0 mm
06:41 -7.7 °C -12.8 °C 1033.1 hPa Calm     67% 0 mm
06:46 -7.9 °C -13 °C 1033.4 hPa Calm     67% 0 mm
06:51 -8.1 °C -13.1 °C 1033.4 hPa Calm     67% 0 mm
06:56 -8.2 °C -13.2 °C 1033.4 hPa Calm     67% 0 mm
07:00 -8.2 °C -13 °C 1033.4 hPa Calm   1.6 km/h 68% 0 mm
07:01 -8.2 °C -13 °C 1033.4 hPa Calm   1.6 km/h 68% 0 mm
07:06 -8.3 °C -12.9 °C 1033.4 hPa Calm   1.6 km/h 69% 0 mm
07:11 -8.3 °C -12.9 °C 1033.4 hPa Calm   1.6 km/h 69% 0 mm
07:16 -8.2 °C -12.7 °C 1033.4 hPa Calm   1.6 km/h 70% 0 mm
07:21 -8.3 °C -12.3 °C 1033.7 hPa Calm     73% 0 mm
07:26 -8.4 °C -12.6 °C 1033.7 hPa Calm     72% 0 mm
07:30 -8.6 °C -12.8 °C 1033.7 hPa Calm     71% 0 mm
07:31 -8.6 °C -12.8 °C 1033.7 hPa Calm     71% 0 mm
07:36 -8.5 °C -12.8 °C 1033.7 hPa Calm   1.6 km/h 71% 0 mm
07:41 -8.4 °C -12.9 °C 1033.7 hPa Calm   1.6 km/h 70% 0 mm
07:46 -8.4 °C -12.9 °C 1033.7 hPa Calm     70% 0 mm
07:51 -8.4 °C -12.9 °C 1033.7 hPa West 1.6 km/h 1.6 km/h 70% 0 mm
07:56 -8.4 °C -12.9 °C 1033.7 hPa West 1.6 km/h 1.6 km/h 70% 0 mm
08:00 -8.4 °C -12.9 °C 1034.1 hPa West 1.6 km/h 1.6 km/h 70% 0 mm
08:01 -8.4 °C -12.9 °C 1034.1 hPa West 1.6 km/h 1.6 km/h 70% 0 mm
08:06 -8.4 °C -12.9 °C 1034.1 hPa West 1.6 km/h 1.6 km/h 70% 0 mm
08:11 -8.3 °C -12.7 °C 1033.7 hPa Calm   1.6 km/h 71% 0 mm
08:16 -8.3 °C -12.1 °C 1033.7 hPa Calm     74% 0 mm
08:21 -8.3 °C -11.9 °C 1033.7 hPa Calm     75% 0 mm
08:26 -8.2 °C -11.9 °C 1034.1 hPa Calm     75% 0 mm
08:30 -8.1 °C -11.9 °C 1034.1 hPa West 1.6 km/h 1.6 km/h 74% 0 mm
08:31 -8.1 °C -11.9 °C 1034.1 hPa West 1.6 km/h 3.2 km/h 74% 0 mm
08:36 -7.9 °C -12.2 °C 1034.1 hPa Calm   1.6 km/h 71% 0 mm
08:38 -7.8 °C -12.1 °C 1034.1 hPa Calm   1.6 km/h 71% 0 mm
08:43 -7.6 °C -12.1 °C 1034.4 hPa West 1.6 km/h 4.8 km/h 70% 0 mm
08:48 -7.3 °C -11.4 °C 1034.4 hPa West 3.2 km/h 4.8 km/h 72% 0 mm
08:53 -7.1 °C -11.8 °C 1034.4 hPa West 1.6 km/h 4.8 km/h 69% 0 mm
08:58 -6.9 °C -11.6 °C 1034.4 hPa West 1.6 km/h 4.8 km/h 69% 0 mm
09:00 -6.8 °C -11.5 °C 1034.8 hPa West 3.2 km/h 4.8 km/h 69% 0 mm
09:03 -6.7 °C -11.4 °C 1034.8 hPa WNW 4.8 km/h 6.4 km/h 69% 0 mm
09:08 -6.6 °C -11.7 °C 1034.8 hPa West 6.4 km/h 8 km/h 67% 0 mm
09:13 -6.4 °C -11.5 °C 1034.8 hPa West 4.8 km/h 6.4 km/h 67% 0 mm
09:19 -6.2 °C -11.6 °C 1034.8 hPa West 4.8 km/h 11.3 km/h 66% 0 mm
09:24 -6 °C -11.3 °C 1034.8 hPa West 1.6 km/h 6.4 km/h 66% 0 mm
09:29 -5.8 °C -11.1 °C 1034.8 hPa WNW 3.2 km/h 6.4 km/h 66% 0 mm
09:30 -5.6 °C -11.2 °C 1034.8 hPa WNW 3.2 km/h 6.4 km/h 65% 0 mm
09:34 -5.4 °C -11 °C 1034.8 hPa WNW 6.4 km/h 6.4 km/h 65% 0 mm
09:39 -5.3 °C -11.4 °C 1035.1 hPa West 9.7 km/h 9.7 km/h 62% 0 mm
09:44 -5.1 °C -11.4 °C 1035.1 hPa WNW 3.2 km/h 9.7 km/h 61% 0 mm
09:49 -4.9 °C -11.1 °C 1035.4 hPa NW 3.2 km/h 6.4 km/h 62% 0 mm
09:54 -4.8 °C -11.3 °C 1035.1 hPa NW 9.7 km/h 9.7 km/h 60% 0 mm
09:59 -4.7 °C -11.2 °C 1035.4 hPa NW 12.9 km/h 12.9 km/h 60% 0 mm
10:00 -4.7 °C -11.4 °C 1035.4 hPa NW 6.4 km/h 12.9 km/h 59% 0 mm
10:04 -4.6 °C -11.4 °C 1035.4 hPa WNW 4.8 km/h 9.7 km/h 59% 0 mm
10:09 -4.4 °C -11.1 °C 1035.4 hPa NNW 4.8 km/h 8 km/h 60% 0 mm
10:14 -4.3 °C -10.9 °C 1035.4 hPa West 6.4 km/h 8 km/h 60% 0 mm
10:19 -4.2 °C -11.2 °C 1035.4 hPa NNE 4.8 km/h 14.5 km/h 58% 0 mm
10:24 -4.1 °C -11.2 °C 1035.4 hPa WNW 8 km/h 11.3 km/h 58% 0 mm
10:29 -4.1 °C -11.3 °C 1035.4 hPa WNW 6.4 km/h 11.3 km/h 57% 0 mm
10:30 -4.2 °C -11.2 °C 1035.4 hPa WNW 6.4 km/h 9.7 km/h 58% 0 mm
10:34 -4 °C -11.1 °C 1035.4 hPa NW 14.5 km/h 14.5 km/h 58% 0 mm
10:39 -3.8 °C -11.1 °C 1035.4 hPa NNW 9.7 km/h 16.1 km/h 57% 0 mm
10:44 -3.8 °C -11.1 °C 1035.4 hPa WNW 8 km/h 14.5 km/h 57% 0 mm
10:49 -3.7 °C -10.9 °C 1035.4 hPa NW 8 km/h 14.5 km/h 57% 0 mm
10:54 -3.5 °C -11 °C 1035.4 hPa WNW 11.3 km/h 16.1 km/h 56% 0 mm
10:59 -3.5 °C -11 °C 1035.4 hPa WNW 6.4 km/h 14.5 km/h 56% 0 mm
11:00 -3.4 °C -10.9 °C 1035.4 hPa NNW 9.7 km/h 14.5 km/h 56% 0 mm
11:04 -3.4 °C -10.9 °C 1035.1 hPa North 6.4 km/h 14.5 km/h 56% 0 mm
11:09 -3.3 °C -11 °C 1035.1 hPa WNW 11.3 km/h 14.5 km/h 55% 0 mm
11:14 -3.3 °C -10.8 °C 1035.1 hPa NNW 8 km/h 9.7 km/h 56% 0 mm
11:19 -3.2 °C -10.9 °C 1035.1 hPa NW 4.8 km/h 11.3 km/h 55% 0 mm
11:24 -2.8 °C -11.1 °C 1035.1 hPa West 6.4 km/h 16.1 km/h 53% 0 mm
11:29 -2.6 °C -10.6 °C 1035.1 hPa NW 11.3 km/h 12.9 km/h 54% 0 mm
11:30 -2.6 °C -10.9 °C 1035.1 hPa North 16.1 km/h 17.7 km/h 53% 0 mm
11:34 -2.7 °C -11.2 °C 1035.1 hPa WNW 9.7 km/h 16.1 km/h 52% 0 mm
11:39 -2.7 °C -11.2 °C 1035.1 hPa NW 6.4 km/h 16.1 km/h 52% 0 mm
11:44 -2.6 °C -11.1 °C 1035.1 hPa NNW 4.8 km/h 14.5 km/h 52% 0 mm
11:50 -2.4 °C -10.7 °C 1034.8 hPa NW 9.7 km/h 11.3 km/h 53% 0 mm
11:55 -2.3 °C -10.6 °C 1034.8 hPa NNW 8 km/h 11.3 km/h 53% 0 mm
12:00 -2.1 °C -10.6 °C 1034.4 hPa North 11.3 km/h 11.3 km/h 52% 0 mm
12:05 -2 °C -10.8 °C 1034.4 hPa North 6.4 km/h 16.1 km/h 51% 0 mm
12:10 -1.9 °C -11 °C 1034.4 hPa North 1.6 km/h 9.7 km/h 50% 0 mm
12:15 -1.9 °C -10.9 °C 1034.1 hPa NW 9.7 km/h 17.7 km/h 50% 0 mm
12:20 -2.1 °C -11.1 °C 1034.1 hPa WSW 4.8 km/h 9.7 km/h 50% 0 mm
12:25 -1.9 °C -10.7 °C 1033.7 hPa SSE 3.2 km/h 9.7 km/h 51% 0 mm
12:30 -1.6 °C -10.4 °C 1033.7 hPa NW 6.4 km/h 6.4 km/h 51% 0 mm
12:35 -1.4 °C -11.3 °C 1033.7 hPa WNW 9.7 km/h 11.3 km/h 47% 0 mm
12:40 -1.3 °C -10.7 °C 1033.4 hPa NNW 4.8 km/h 8 km/h 49% 0 mm
12:45 -1.1 °C -10.7 °C 1033.4 hPa NNW 3.2 km/h 9.7 km/h 48% 0 mm
12:50 -1 °C -10.3 °C 1033.1 hPa NW 9.7 km/h 16.1 km/h 49% 0 mm
12:55 -1 °C -11.2 °C 1033.1 hPa SSW 8 km/h 11.3 km/h 46% 0 mm
13:00 -0.9 °C -11.1 °C 1033.1 hPa NW 8 km/h 11.3 km/h 46% 0 mm
13:05 -0.8 °C -10.4 °C 1032.7 hPa SSW 8 km/h 14.5 km/h 48% 0 mm
13:10 -0.7 °C -10.3 °C 1032.7 hPa WSW 6.4 km/h 16.1 km/h 48% 0 mm
13:15 -0.7 °C -10.9 °C 1032.7 hPa WNW 4.8 km/h 14.5 km/h 46% 0 mm
13:20 -0.6 °C -10.7 °C 1032.7 hPa WNW 11.3 km/h 11.3 km/h 46% 0 mm
13:25 -0.3 °C -11.1 °C 1032.7 hPa West 4.8 km/h 8 km/h 44% 0 mm
13:30 -0.4 °C -11.4 °C 1032.7 hPa NNW 3.2 km/h 12.9 km/h 43% 0 mm
13:35 -0.3 °C -11.1 °C 1032.7 hPa West 8 km/h 11.3 km/h 44% 0 mm
13:36 -0.3 °C -11.1 °C 1032.7 hPa WNW 6.4 km/h 11.3 km/h 44% 0 mm
13:41 -0.1 °C -10.8 °C 1032.7 hPa WNW 6.4 km/h 14.5 km/h 44% 0 mm
13:46 0 °C -11.1 °C 1032.4 hPa West 4.8 km/h 11.3 km/h 43% 0 mm
13:51 0.1 °C -11.3 °C 1032.4 hPa West 6.4 km/h 12.9 km/h 42% 0 mm
13:56 0 °C -11.4 °C 1032.1 hPa SW 6.4 km/h 11.3 km/h 42% 0 mm
14:00 0.1 °C -11 °C 1032.1 hPa WSW 9.7 km/h 9.7 km/h 43% 0 mm
14:01 0.2 °C -10.9 °C 1032.1 hPa WSW 8 km/h 9.7 km/h 43% 0 mm
14:06 0.3 °C -11.4 °C 1032.1 hPa WSW 11.3 km/h 12.9 km/h 41% 0 mm
14:11 0.3 °C -11.1 °C 1032.1 hPa West 6.4 km/h 16.1 km/h 42% 0 mm
14:16 0.4 °C -11.6 °C 1032.1 hPa West 9.7 km/h 17.7 km/h 40% 0 mm
14:21 0.4 °C -11.6 °C 1032.4 hPa WSW 8 km/h 12.9 km/h 40% 0 mm
14:26 0.6 °C -11.7 °C 1032.1 hPa Calm   11.3 km/h 39% 0 mm
14:30 0.8 °C -11.6 °C 1032.1 hPa West 4.8 km/h 8 km/h 39% 0 mm
14:31 0.9 °C -11.5 °C 1032.1 hPa WSW 9.7 km/h 9.7 km/h 39% 0 mm
14:36 0.9 °C -11.5 °C 1032.1 hPa West 6.4 km/h 14.5 km/h 39% 0 mm
14:41 0.9 °C -11.8 °C 1032.1 hPa WSW 8 km/h 9.7 km/h 38% 0 mm
14:46 1.1 °C -11.3 °C 1032.1 hPa WNW 3.2 km/h 9.7 km/h 39% 0 mm
14:51 1.2 °C -11.6 °C 1031.7 hPa West 8 km/h 14.5 km/h 38% 0 mm
14:56 1 °C -11.7 °C 1031.7 hPa NW 6.4 km/h 11.3 km/h 38% 0 mm
15:00 1.1 °C -11.3 °C 1031.7 hPa SSW 8 km/h 8 km/h 39% 0 mm
15:01 1.1 °C -11.3 °C 1031.7 hPa SSW 8 km/h 8 km/h 39% 0 mm
15:06 0.9 °C -11.8 °C 1031.7 hPa Calm   4.8 km/h 38% 0 mm
15:11 1.1 °C -11.9 °C 1031.7 hPa WNW 8 km/h 16.1 km/h 37% 0 mm
15:16 1.2 °C -11.9 °C 1031.7 hPa WSW 1.6 km/h 9.7 km/h 37% 0 mm
15:21 1.4 °C -12 °C 1031.7 hPa WNW 4.8 km/h 12.9 km/h 36% 0 mm
15:26 1.7 °C -11.4 °C 1031.7 hPa NNW 6.4 km/h 12.9 km/h 37% 0 mm
15:30 1.6 °C -11.6 °C 1031.7 hPa NNE 9.7 km/h 12.9 km/h 37% 0 mm
15:31 1.6 °C -11.6 °C 1031.7 hPa West 1.6 km/h 12.9 km/h 37% 0 mm
15:37 1.7 °C -12.9 °C 1031.7 hPa WNW 6.4 km/h 12.9 km/h 33% 0 mm
15:42 1.6 °C -12.9 °C 1031.7 hPa WNW 9.7 km/h 16.1 km/h 33% 0 mm
15:47 1.6 °C -12.6 °C 1031.7 hPa WNW 4.8 km/h 6.4 km/h 34% 0 mm
15:52 1.8 °C -12.1 °C 1031.7 hPa WNW 1.6 km/h 4.8 km/h 35% 0 mm
15:57 1.8 °C -12.3 °C 1031.7 hPa WNW 6.4 km/h 11.3 km/h 34% 0 mm
16:00 1.8 °C -12.3 °C 1031.7 hPa West 1.6 km/h 6.4 km/h 34% 0 mm
16:02 1.9 °C -12.3 °C 1031.7 hPa West 3.2 km/h 6.4 km/h 34% 0 mm
16:07 2 °C -12.2 °C 1031.4 hPa NW 1.6 km/h 4.8 km/h 34% 0 mm
16:12 2.1 °C -12.5 °C 1031.4 hPa WNW 8 km/h 8 km/h 33% 0 mm
16:17 2.2 °C -12.4 °C 1031.7 hPa WSW 1.6 km/h 9.7 km/h 33% 0 mm
16:22 2.3 °C -11.9 °C 1031.4 hPa Calm   3.2 km/h 34% 0 mm
16:27 2.6 °C -12.4 °C 1031.4 hPa NW 1.6 km/h 6.4 km/h 32% 0 mm
16:30 2.4 °C -12.2 °C 1031.4 hPa NNE 4.8 km/h 4.8 km/h 33% 0 mm
16:32 2.4 °C -12.6 °C 1031.4 hPa East 4.8 km/h 6.4 km/h 32% 0 mm
16:37 2.4 °C -12.2 °C 1031.4 hPa West 3.2 km/h 3.2 km/h 33% 0 mm
16:42 2.5 °C -12.9 °C 1031.4 hPa SSW 3.2 km/h 6.4 km/h 31% 0 mm
16:47 2.3 °C -12.7 °C 1031 hPa SW 4.8 km/h 6.4 km/h 32% 0 mm
16:52 2.4 °C -12.6 °C 1031 hPa NW 3.2 km/h 4.8 km/h 32% 0 mm
16:57 2.1 °C -12.9 °C 1031 hPa West 1.6 km/h 8 km/h 32% 0 mm
17:00 2.1 °C -13.3 °C 1031 hPa West 4.8 km/h 6.4 km/h 31% 0 mm
17:02 2 °C -13.3 °C 1031 hPa WSW 4.8 km/h 6.4 km/h 31% 0 mm
17:07 1.9 °C -13 °C 1030.7 hPa West 4.8 km/h 4.8 km/h 32% 0 mm
17:12 1.8 °C -11.7 °C 1031 hPa SW 3.2 km/h 6.4 km/h 36% 0 mm
17:17 1.8 °C -11.7 °C 1030.7 hPa SW 6.4 km/h 6.4 km/h 36% 0 mm
17:22 1.7 °C -12.8 °C 1030.7 hPa SW 1.6 km/h 3.2 km/h 33% 0 mm
17:27 1.8 °C -11.7 °C 1030.7 hPa Calm   1.6 km/h 36% 0 mm
17:30 1.8 °C -11.7 °C 1030.7 hPa Calm     36% 0 mm
17:32 1.9 °C -11.9 °C 1030.7 hPa Calm     35% 0 mm
17:37 1.7 °C -12.5 °C 1030.4 hPa WSW 3.2 km/h 4.8 km/h 34% 0 mm
17:42 1.2 °C -12.6 °C 1030.4 hPa SW 3.2 km/h 3.2 km/h 35% 0 mm
17:47 0.8 °C -12.6 °C 1030.4 hPa WSW 1.6 km/h 3.2 km/h 36% 0 mm
17:52 0.6 °C -12.4 °C 1030.4 hPa Calm   3.2 km/h 37% 0 mm
17:57 0.2 °C -11.8 °C 1030.4 hPa Calm   1.6 km/h 40% 0 mm
18:00 0 °C -12.3 °C 1030.4 hPa Calm     39% 0 mm
18:02 -0.1 °C -12.3 °C 1030.4 hPa Calm     39% 0 mm
18:07 -0.2 °C -11.6 °C 1030.4 hPa Calm     42% 0 mm
18:12 -0.4 °C -12.1 °C 1030.4 hPa Calm     41% 0 mm
18:17 -0.7 °C -12 °C 1030.4 hPa Calm     42% 0 mm
18:22 -0.8 °C -12.4 °C 1030.4 hPa WSW 1.6 km/h 1.6 km/h 41% 0 mm
18:27 -0.9 °C -12.5 °C 1030.7 hPa Calm   1.6 km/h 41% 0 mm
18:30 -1.1 °C -13.3 °C 1030.7 hPa Calm   1.6 km/h 39% 0 mm
18:32 -1.1 °C -13.3 °C 1030.7 hPa Calm   1.6 km/h 39% 0 mm
18:37 -1.1 °C -13.3 °C 1030.7 hPa Calm     39% 0 mm
18:42 -1.2 °C -13.1 °C 1030.7 hPa Calm     40% 0 mm
18:47 -1.4 °C -13.3 °C 1030.7 hPa Calm     40% 0 mm
18:53 -1.8 °C -13.3 °C 1030.7 hPa Calm     41% 0 mm
18:58 -2.2 °C -13.3 °C 1030.7 hPa Calm     42% 0 mm
19:00 -2.3 °C -13.4 °C 1030.7 hPa Calm     42% 0 mm
19:03 -2.3 °C -13.4 °C 1030.7 hPa Calm     42% 0 mm
19:08 -2.6 °C -13.7 °C 1030.7 hPa Calm     42% 0 mm
19:13 -2.8 °C -13.7 °C 1030.7 hPa Calm     43% 0 mm
19:18 -2.8 °C -13.1 °C 1030.7 hPa Calm     45% 0 mm
19:26 -2.6 °C -12.6 °C 1030.4 hPa Calm     46% 0 mm
19:31 -2.4 °C -13 °C 1030.4 hPa Calm     44% 0 mm
19:36 -2.3 °C -12.9 °C 1030.4 hPa Calm     44% 0 mm
19:41 -2.3 °C -12.7 °C 1030.4 hPa SSE 1.6 km/h 3.2 km/h 45% 0 mm
19:46 -2.5 °C -12.8 °C 1030.4 hPa Calm     45% 0 mm
19:51 -2.6 °C -12.8 °C 1030 hPa SSE 1.6 km/h 1.6 km/h 45% 0 mm
19:56 -2.5 °C -12.8 °C 1030 hPa SSE 3.2 km/h 3.2 km/h 45% 0 mm
20:01 -2.3 °C -12.7 °C 1030 hPa SE 1.6 km/h 3.2 km/h 45% 0 mm
20:06 -2.2 °C -13.1 °C 1030 hPa SE 1.6 km/h 1.6 km/h 43% 0 mm
20:11 -2.2 °C -12.8 °C 1029.7 hPa SE 1.6 km/h 3.2 km/h 44% 0 mm
20:16 -2.2 °C -12.8 °C 1029.7 hPa SE 1.6 km/h 1.6 km/h 44% 0 mm
20:21 -2.1 °C -12.7 °C 1029.7 hPa SE 1.6 km/h 1.6 km/h 44% 0 mm
20:26 -2.2 °C -12.5 °C 1029.7 hPa SE 1.6 km/h 1.6 km/h 45% 0 mm
20:31 -2.3 °C -12.7 °C 1030 hPa SE 1.6 km/h 1.6 km/h 45% 0 mm
20:36 -2.4 °C -12.5 °C 1030 hPa SE 1.6 km/h 1.6 km/h 46% 0 mm
20:41 -2.6 °C -12.6 °C 1030 hPa Calm   1.6 km/h 46% 0 mm
20:46 -2.6 °C -12.4 °C 1030 hPa SE 1.6 km/h 1.6 km/h 47% 0 mm
20:51 -2.7 °C -12.2 °C 1030 hPa SE 1.6 km/h 1.6 km/h 48% 0 mm
20:56 -2.8 °C -12.6 °C 1030 hPa SE 1.6 km/h 1.6 km/h 47% 0 mm
21:01 -2.8 °C -12.6 °C 1030 hPa Calm   1.6 km/h 47% 0 mm
21:06 -2.8 °C -12.6 °C 1029.7 hPa Calm   1.6 km/h 47% 0 mm
21:11 -2.9 °C -12.7 °C 1029.7 hPa Calm     47% 0 mm
21:16 -3.2 °C -12.9 °C 1029.7 hPa Calm     47% 0 mm
21:21 -3.4 °C -13.1 °C 1030 hPa Calm     47% 0 mm
21:26 -3.7 °C -12.9 °C 1029.7 hPa Calm     49% 0 mm
21:31 -3.9 °C -13 °C 1029.7 hPa Calm     49% 0 mm
21:36 -3.6 °C -13 °C 1029.7 hPa Calm     48% 0 mm
21:41 -3.3 °C -13.3 °C 1029.7 hPa Calm     46% 0 mm
21:47 -3.2 °C -13.1 °C 1029.7 hPa SSE 1.6 km/h 1.6 km/h 46% 0 mm
21:52 -3 °C -13 °C 1029.3 hPa SE 1.6 km/h 3.2 km/h 46% 0 mm
21:57 -2.9 °C -12.4 °C 1029.3 hPa SE 1.6 km/h 3.2 km/h 48% 0 mm
22:02 -2.9 °C -12.9 °C 1029.3 hPa SE 1.6 km/h 1.6 km/h 46% 0 mm
22:07 -2.7 °C -12.7 °C 1029.3 hPa SE 1.6 km/h 3.2 km/h 46% 0 mm
22:12 -2.6 °C -12.6 °C 1029 hPa SE 1.6 km/h 3.2 km/h 46% 0 mm
22:17 -2.6 °C -12.9 °C 1029.3 hPa SE 1.6 km/h 1.6 km/h 45% 0 mm
22:22 -2.6 °C -12.9 °C 1029.3 hPa SE 1.6 km/h 1.6 km/h 45% 0 mm
22:27 -2.7 °C -12.7 °C 1029.3 hPa SE 1.6 km/h 1.6 km/h 46% 0 mm
22:32 -2.7 °C -12.7 °C 1029.3 hPa ESE 1.6 km/h 1.6 km/h 46% 0 mm
22:37 -2.6 °C -12.8 °C 1029 hPa ESE 1.6 km/h 1.6 km/h 45% 0 mm
22:42 -2.6 °C -12.8 °C 1029 hPa ESE 1.6 km/h 1.6 km/h 45% 0 mm
22:47 -2.6 °C -12.6 °C 1029 hPa Calm   1.6 km/h 46% 0 mm
22:52 -2.8 °C -12.5 °C 1029 hPa ESE 1.6 km/h 1.6 km/h 47% 0 mm
22:57 -3 °C -12.7 °C 1029 hPa East 3.2 km/h 3.2 km/h 47% 0 mm
23:02 -3.4 °C -12.1 °C 1029 hPa Calm   3.2 km/h 51% 0 mm
23:07 -3.6 °C -12.3 °C 1029 hPa SE 1.6 km/h 1.6 km/h 51% 0 mm
23:12 -3.5 °C -12.4 °C 1029 hPa SE 1.6 km/h 3.2 km/h 50% 0 mm
23:17 -3.6 °C -12 °C 1029 hPa SE 1.6 km/h 1.6 km/h 52% 0 mm
23:22 -3.7 °C -11.7 °C 1029 hPa SE 1.6 km/h 1.6 km/h 54% 0 mm
23:27 -4 °C -11.5 °C 1029 hPa SE 3.2 km/h 3.2 km/h 56% 0 mm
23:32 -4.1 °C -11.8 °C 1029 hPa SE 3.2 km/h 4.8 km/h 55% 0 mm
23:37 -3.9 °C -11.8 °C 1029 hPa SE 3.2 km/h 4.8 km/h 54% 0 mm
23:42 -3.9 °C -11.7 °C 1029 hPa SE 3.2 km/h 3.2 km/h 55% 0 mm
23:47 -3.9 °C -11.4 °C 1028.7 hPa SE 3.2 km/h 4.8 km/h 56% 0 mm
23:52 -3.9 °C -11.2 °C 1028.7 hPa ESE 6.4 km/h 6.4 km/h 57% 0 mm
23:57 -3.7 °C -10.7 °C 1028.7 hPa SE 4.8 km/h 6.4 km/h 58% 0 mm
Compliments of Weather Underground